sensor_id;sensor_type;location;lat;lon;timestamp;P1;durP1;ratioP1;P2;durP2;ratioP2
40931;SDS011;36257;46.052;12.540;2024-01-10T00:01:18;13.53;;;12.03;;
40931;SDS011;36257;46.052;12.540;2024-01-10T00:03:44;13.23;;;11.80;;
40931;SDS011;36257;46.052;12.540;2024-01-10T00:06:10;13.70;;;11.67;;
40931;SDS011;36257;46.052;12.540;2024-01-10T00:08:36;13.63;;;12.23;;
40931;SDS011;36257;46.052;12.540;2024-01-10T00:11:02;12.90;;;11.60;;
40931;SDS011;36257;46.052;12.540;2024-01-10T00:13:28;14.00;;;12.50;;
40931;SDS011;36257;46.052;12.540;2024-01-10T00:15:56;18.43;;;13.20;;
40931;SDS011;36257;46.052;12.540;2024-01-10T00:20:49;15.17;;;12.80;;
40931;SDS011;36257;46.052;12.540;2024-01-10T00:23:15;13.20;;;11.63;;
40931;SDS011;36257;46.052;12.540;2024-01-10T00:25:41;13.03;;;11.73;;
40931;SDS011;36257;46.052;12.540;2024-01-10T00:28:06;12.33;;;11.13;;
40931;SDS011;36257;46.052;12.540;2024-01-10T00:30:32;12.40;;;10.87;;
40931;SDS011;36257;46.052;12.540;2024-01-10T00:32:58;13.07;;;11.77;;
40931;SDS011;36257;46.052;12.540;2024-01-10T00:35:23;13.13;;;11.83;;
40931;SDS011;36257;46.052;12.540;2024-01-10T00:37:49;13.10;;;11.80;;
40931;SDS011;36257;46.052;12.540;2024-01-10T00:40:14;13.87;;;11.93;;
40931;SDS011;36257;46.052;12.540;2024-01-10T00:42:40;11.97;;;10.97;;
40931;SDS011;36257;46.052;12.540;2024-01-10T00:45:06;13.83;;;11.93;;
40931;SDS011;36257;46.052;12.540;2024-01-10T00:47:31;13.13;;;11.73;;
40931;SDS011;36257;46.052;12.540;2024-01-10T00:49:57;12.43;;;11.23;;
40931;SDS011;36257;46.052;12.540;2024-01-10T00:52:23;13.33;;;12.03;;
40931;SDS011;36257;46.052;12.540;2024-01-10T00:54:48;13.47;;;11.83;;
40931;SDS011;36257;46.052;12.540;2024-01-10T00:57:14;15.50;;;13.07;;
40931;SDS011;36257;46.052;12.540;2024-01-10T00:59:40;12.63;;;11.33;;
40931;SDS011;36257;46.052;12.540;2024-01-10T01:02:05;13.70;;;12.30;;
40931;SDS011;36257;46.052;12.540;2024-01-10T01:04:31;12.83;;;11.60;;
40931;SDS011;36257;46.052;12.540;2024-01-10T01:06:57;12.67;;;11.50;;
40931;SDS011;36257;46.052;12.540;2024-01-10T01:09:22;13.27;;;11.97;;
40931;SDS011;36257;46.052;12.540;2024-01-10T01:11:48;13.57;;;12.17;;
40931;SDS011;36257;46.052;12.540;2024-01-10T01:14:14;13.93;;;12.43;;
40931;SDS011;36257;46.052;12.540;2024-01-10T01:16:40;15.60;;;13.90;;
40931;SDS011;36257;46.052;12.540;2024-01-10T01:19:05;13.40;;;12.00;;
40931;SDS011;36257;46.052;12.540;2024-01-10T01:21:31;16.33;;;13.20;;
40931;SDS011;36257;46.052;12.540;2024-01-10T01:23:57;14.90;;;13.37;;
40931;SDS011;36257;46.052;12.540;2024-01-10T01:26:22;14.23;;;12.83;;
40931;SDS011;36257;46.052;12.540;2024-01-10T01:28:48;14.13;;;12.67;;
40931;SDS011;36257;46.052;12.540;2024-01-10T01:31:13;13.57;;;12.17;;
40931;SDS011;36257;46.052;12.540;2024-01-10T01:33:39;14.23;;;11.70;;
40931;SDS011;36257;46.052;12.540;2024-01-10T01:36:05;14.47;;;13.07;;
40931;SDS011;36257;46.052;12.540;2024-01-10T01:38:31;13.33;;;12.10;;
40931;SDS011;36257;46.052;12.540;2024-01-10T01:40:57;13.00;;;11.80;;
40931;SDS011;36257;46.052;12.540;2024-01-10T01:43:24;13.23;;;11.63;;
40931;SDS011;36257;46.052;12.540;2024-01-10T01:45:51;13.87;;;12.43;;
40931;SDS011;36257;46.052;12.540;2024-01-10T01:48:19;13.80;;;11.67;;
40931;SDS011;36257;46.052;12.540;2024-01-10T01:50:45;15.90;;;14.38;;
40931;SDS011;36257;46.052;12.540;2024-01-10T01:53:13;14.00;;;11.87;;
40931;SDS011;36257;46.052;12.540;2024-01-10T01:55:40;13.47;;;12.07;;
40931;SDS011;36257;46.052;12.540;2024-01-10T01:58:08;13.90;;;12.57;;
40931;SDS011;36257;46.052;12.540;2024-01-10T02:00:34;17.43;;;14.70;;
40931;SDS011;36257;46.052;12.540;2024-01-10T02:03:00;16.30;;;14.27;;
40931;SDS011;36257;46.052;12.540;2024-01-10T02:05:27;16.20;;;13.93;;
40931;SDS011;36257;46.052;12.540;2024-01-10T02:07:53;16.60;;;15.07;;
40931;SDS011;36257;46.052;12.540;2024-01-10T02:10:20;15.65;;;13.98;;
40931;SDS011;36257;46.052;12.540;2024-01-10T02:12:46;15.63;;;13.93;;
40931;SDS011;36257;46.052;12.540;2024-01-10T02:15:12;15.77;;;14.07;;
40931;SDS011;36257;46.052;12.540;2024-01-10T02:17:39;15.43;;;13.82;;
40931;SDS011;36257;46.052;12.540;2024-01-10T02:20:12;16.63;;;14.00;;
40931;SDS011;36257;46.052;12.540;2024-01-10T02:22:39;16.83;;;13.33;;
40931;SDS011;36257;46.052;12.540;2024-01-10T02:25:11;15.73;;;14.07;;
40931;SDS011;36257;46.052;12.540;2024-01-10T02:27:37;16.60;;;14.20;;
40931;SDS011;36257;46.052;12.540;2024-01-10T02:30:04;13.80;;;12.00;;
40931;SDS011;36257;46.052;12.540;2024-01-10T02:32:31;17.25;;;14.35;;
40931;SDS011;36257;46.052;12.540;2024-01-10T02:34:57;15.03;;;13.43;;
40931;SDS011;36257;46.052;12.540;2024-01-10T02:37:24;16.77;;;15.07;;
40931;SDS011;36257;46.052;12.540;2024-01-10T02:39:49;18.83;;;14.73;;
40931;SDS011;36257;46.052;12.540;2024-01-10T02:42:15;16.13;;;13.43;;
40931;SDS011;36257;46.052;12.540;2024-01-10T02:44:42;16.03;;;13.40;;
40931;SDS011;36257;46.052;12.540;2024-01-10T02:47:09;16.13;;;14.20;;
40931;SDS011;36257;46.052;12.540;2024-01-10T02:49:36;16.17;;;14.27;;
40931;SDS011;36257;46.052;12.540;2024-01-10T02:52:02;15.83;;;14.03;;
40931;SDS011;36257;46.052;12.540;2024-01-10T02:54:27;15.53;;;13.60;;
40931;SDS011;36257;46.052;12.540;2024-01-10T02:56:53;15.93;;;14.27;;
40931;SDS011;36257;46.052;12.540;2024-01-10T02:59:19;16.23;;;13.63;;
40931;SDS011;36257;46.052;12.540;2024-01-10T03:01:44;18.73;;;13.10;;
40931;SDS011;36257;46.052;12.540;2024-01-10T03:04:10;15.07;;;13.47;;
40931;SDS011;36257;46.052;12.540;2024-01-10T03:06:35;17.90;;;13.70;;
40931;SDS011;36257;46.052;12.540;2024-01-10T03:09:02;16.50;;;13.77;;
40931;SDS011;36257;46.052;12.540;2024-01-10T03:11:28;19.25;;;14.48;;
40931;SDS011;36257;46.052;12.540;2024-01-10T03:14:29;17.63;;;14.50;;
40931;SDS011;36257;46.052;12.540;2024-01-10T03:16:47;16.80;;;13.20;;
40931;SDS011;36257;46.052;12.540;2024-01-10T03:19:13;17.00;;;13.27;;
40931;SDS011;36257;46.052;12.540;2024-01-10T03:21:39;17.27;;;13.40;;
40931;SDS011;36257;46.052;12.540;2024-01-10T03:24:05;15.47;;;13.27;;
40931;SDS011;36257;46.052;12.540;2024-01-10T03:26:31;16.60;;;14.13;;
40931;SDS011;36257;46.052;12.540;2024-01-10T03:28:56;18.80;;;14.53;;
40931;SDS011;36257;46.052;12.540;2024-01-10T03:31:23;16.50;;;14.33;;
40931;SDS011;36257;46.052;12.540;2024-01-10T03:33:49;19.87;;;14.07;;
40931;SDS011;36257;46.052;12.540;2024-01-10T03:36:16;17.27;;;14.27;;
40931;SDS011;36257;46.052;12.540;2024-01-10T03:38:42;16.58;;;13.27;;
40931;SDS011;36257;46.052;12.540;2024-01-10T03:41:15;14.97;;;12.60;;
40931;SDS011;36257;46.052;12.540;2024-01-10T03:43:41;13.83;;;11.53;;
40931;SDS011;36257;46.052;12.540;2024-01-10T03:46:07;12.77;;;11.30;;
40931;SDS011;36257;46.052;12.540;2024-01-10T03:48:33;14.53;;;12.27;;
40931;SDS011;36257;46.052;12.540;2024-01-10T03:50:59;13.70;;;11.93;;
40931;SDS011;36257;46.052;12.540;2024-01-10T03:53:25;15.23;;;12.23;;
40931;SDS011;36257;46.052;12.540;2024-01-10T03:55:50;12.10;;;10.57;;
40931;SDS011;36257;46.052;12.540;2024-01-10T03:58:16;12.93;;;11.63;;
40931;SDS011;36257;46.052;12.540;2024-01-10T04:00:42;12.67;;;11.37;;
40931;SDS011;36257;46.052;12.540;2024-01-10T04:03:07;13.70;;;11.63;;
40931;SDS011;36257;46.052;12.540;2024-01-10T04:05:33;13.20;;;11.87;;
40931;SDS011;36257;46.052;12.540;2024-01-10T04:07:59;14.83;;;11.43;;
40931;SDS011;36257;46.052;12.540;2024-01-10T04:10:24;11.90;;;10.87;;
40931;SDS011;36257;46.052;12.540;2024-01-10T04:12:50;13.60;;;10.90;;
40931;SDS011;36257;46.052;12.540;2024-01-10T04:15:16;13.80;;;12.33;;
40931;SDS011;36257;46.052;12.540;2024-01-10T04:17:44;13.00;;;11.80;;
40931;SDS011;36257;46.052;12.540;2024-01-10T04:20:10;12.53;;;11.23;;
40931;SDS011;36257;46.052;12.540;2024-01-10T04:22:36;12.47;;;11.37;;
40931;SDS011;36257;46.052;12.540;2024-01-10T04:25:03;12.03;;;10.83;;
40931;SDS011;36257;46.052;12.540;2024-01-10T04:27:31;14.20;;;11.60;;
40931;SDS011;36257;46.052;12.540;2024-01-10T04:29:56;15.27;;;12.23;;
40931;SDS011;36257;46.052;12.540;2024-01-10T04:32:22;14.70;;;11.30;;
40931;SDS011;36257;46.052;12.540;2024-01-10T04:34:48;12.73;;;11.37;;
40931;SDS011;36257;46.052;12.540;2024-01-10T04:37:13;15.27;;;11.77;;
40931;SDS011;36257;46.052;12.540;2024-01-10T04:39:39;18.50;;;12.83;;
40931;SDS011;36257;46.052;12.540;2024-01-10T04:42:07;17.27;;;13.17;;
40931;SDS011;36257;46.052;12.540;2024-01-10T04:44:33;17.40;;;13.07;;
40931;SDS011;36257;46.052;12.540;2024-01-10T04:46:59;14.00;;;12.60;;
40931;SDS011;36257;46.052;12.540;2024-01-10T04:49:25;14.13;;;12.63;;
40931;SDS011;36257;46.052;12.540;2024-01-10T04:51:50;13.60;;;12.00;;
40931;SDS011;36257;46.052;12.540;2024-01-10T04:54:16;13.73;;;11.37;;
40931;SDS011;36257;46.052;12.540;2024-01-10T04:56:42;13.17;;;11.80;;
40931;SDS011;36257;46.052;12.540;2024-01-10T04:59:07;13.93;;;12.50;;
40931;SDS011;36257;46.052;12.540;2024-01-10T05:01:33;12.70;;;11.50;;
40931;SDS011;36257;46.052;12.540;2024-01-10T05:03:59;12.03;;;10.73;;
40931;SDS011;36257;46.052;12.540;2024-01-10T05:06:25;12.67;;;11.40;;
40931;SDS011;36257;46.052;12.540;2024-01-10T05:08:51;13.97;;;11.77;;
40931;SDS011;36257;46.052;12.540;2024-01-10T05:11:16;13.83;;;12.43;;
40931;SDS011;36257;46.052;12.540;2024-01-10T05:13:42;11.80;;;10.60;;
40931;SDS011;36257;46.052;12.540;2024-01-10T05:16:08;12.53;;;11.30;;
40931;SDS011;36257;46.052;12.540;2024-01-10T05:18:34;13.33;;;11.93;;
40931;SDS011;36257;46.052;12.540;2024-01-10T05:21:00;13.67;;;11.50;;
40931;SDS011;36257;46.052;12.540;2024-01-10T05:23:25;13.13;;;11.93;;
40931;SDS011;36257;46.052;12.540;2024-01-10T05:25:51;13.57;;;12.07;;
40931;SDS011;36257;46.052;12.540;2024-01-10T05:28:17;13.50;;;12.10;;
40931;SDS011;36257;46.052;12.540;2024-01-10T05:30:42;14.17;;;12.67;;
40931;SDS011;36257;46.052;12.540;2024-01-10T05:33:09;16.57;;;12.40;;
40931;SDS011;36257;46.052;12.540;2024-01-10T05:35:36;15.63;;;13.10;;
40931;SDS011;36257;46.052;12.540;2024-01-10T05:38:03;13.02;;;11.82;;
40931;SDS011;36257;46.052;12.540;2024-01-10T05:40:29;14.13;;;12.10;;
40931;SDS011;36257;46.052;12.540;2024-01-10T05:43:00;12.80;;;11.17;;
40931;SDS011;36257;46.052;12.540;2024-01-10T05:45:26;12.77;;;11.47;;
40931;SDS011;36257;46.052;12.540;2024-01-10T05:47:53;15.27;;;12.38;;
40931;SDS011;36257;46.052;12.540;2024-01-10T05:50:19;13.17;;;11.83;;
40931;SDS011;36257;46.052;12.540;2024-01-10T05:52:45;12.83;;;11.53;;
40931;SDS011;36257;46.052;12.540;2024-01-10T05:55:11;16.50;;;11.43;;
40931;SDS011;36257;46.052;12.540;2024-01-10T05:57:36;12.93;;;10.80;;
40931;SDS011;36257;46.052;12.540;2024-01-10T07:20:55;12.60;;;11.30;;
40931;SDS011;36257;46.052;12.540;2024-01-10T07:33:35;12.77;;;11.30;;
40931;SDS011;36257;46.052;12.540;2024-01-10T07:36:01;12.90;;;11.23;;
40931;SDS011;36257;46.052;12.540;2024-01-10T07:38:27;12.33;;;11.00;;
40931;SDS011;36257;46.052;12.540;2024-01-10T07:40:52;13.77;;;11.83;;
40931;SDS011;36257;46.052;12.540;2024-01-10T07:43:18;12.90;;;11.43;;
40931;SDS011;36257;46.052;12.540;2024-01-10T07:45:44;15.20;;;12.67;;
40931;SDS011;36257;46.052;12.540;2024-01-10T07:48:09;16.47;;;13.80;;
40931;SDS011;36257;46.052;12.540;2024-01-10T07:50:36;18.50;;;13.23;;
40931;SDS011;36257;46.052;12.540;2024-01-10T07:53:01;14.63;;;12.97;;
40931;SDS011;36257;46.052;12.540;2024-01-10T07:55:27;15.20;;;13.53;;
40931;SDS011;36257;46.052;12.540;2024-01-10T07:57:56;13.63;;;12.17;;
40931;SDS011;36257;46.052;12.540;2024-01-10T08:00:21;14.83;;;13.40;;
40931;SDS011;36257;46.052;12.540;2024-01-10T08:02:47;16.50;;;15.07;;
40931;SDS011;36257;46.052;12.540;2024-01-10T08:05:14;19.48;;;16.15;;
40931;SDS011;36257;46.052;12.540;2024-01-10T08:07:40;15.40;;;13.80;;
40931;SDS011;36257;46.052;12.540;2024-01-10T08:10:06;14.77;;;10.93;;
40931;SDS011;36257;46.052;12.540;2024-01-10T08:12:39;14.47;;;12.00;;
40931;SDS011;36257;46.052;12.540;2024-01-10T08:15:06;12.70;;;11.37;;
40931;SDS011;36257;46.052;12.540;2024-01-10T08:17:32;12.70;;;11.43;;
40931;SDS011;36257;46.052;12.540;2024-01-10T08:19:58;13.00;;;10.87;;
40931;SDS011;36257;46.052;12.540;2024-01-10T08:22:25;13.70;;;10.63;;
40931;SDS011;36257;46.052;12.540;2024-01-10T08:24:51;13.03;;;11.50;;
40931;SDS011;36257;46.052;12.540;2024-01-10T08:27:16;13.93;;;11.80;;
40931;SDS011;36257;46.052;12.540;2024-01-10T08:29:42;18.50;;;13.37;;
40931;SDS011;36257;46.052;12.540;2024-01-10T08:32:09;19.02;;;14.00;;
40931;SDS011;36257;46.052;12.540;2024-01-10T08:34:35;14.90;;;11.47;;
40931;SDS011;36257;46.052;12.540;2024-01-10T08:37:01;11.60;;;9.87;;
40931;SDS011;36257;46.052;12.540;2024-01-10T08:39:27;12.00;;;10.80;;
40931;SDS011;36257;46.052;12.540;2024-01-10T08:41:55;11.77;;;10.57;;
40931;SDS011;36257;46.052;12.540;2024-01-10T08:44:24;12.73;;;11.40;;
40931;SDS011;36257;46.052;12.540;2024-01-10T08:46:49;12.30;;;11.00;;
40931;SDS011;36257;46.052;12.540;2024-01-10T08:49:18;13.67;;;12.17;;
40931;SDS011;36257;46.052;12.540;2024-01-10T08:51:44;12.33;;;11.13;;
40931;SDS011;36257;46.052;12.540;2024-01-10T08:54:11;14.50;;;11.48;;
40931;SDS011;36257;46.052;12.540;2024-01-10T08:56:41;12.50;;;10.87;;
40931;SDS011;36257;46.052;12.540;2024-01-10T08:59:13;11.17;;;9.83;;
40931;SDS011;36257;46.052;12.540;2024-01-10T09:01:39;12.47;;;11.10;;
40931;SDS011;36257;46.052;12.540;2024-01-10T09:04:05;17.10;;;11.43;;
40931;SDS011;36257;46.052;12.540;2024-01-10T09:06:32;14.57;;;11.87;;
40931;SDS011;36257;46.052;12.540;2024-01-10T09:08:57;13.43;;;11.37;;
40931;SDS011;36257;46.052;12.540;2024-01-10T09:11:23;12.47;;;11.17;;
40931;SDS011;36257;46.052;12.540;2024-01-10T09:13:49;13.83;;;12.17;;
40931;SDS011;36257;46.052;12.540;2024-01-10T09:16:16;12.80;;;10.80;;
40931;SDS011;36257;46.052;12.540;2024-01-10T09:18:43;14.45;;;11.38;;
40931;SDS011;36257;46.052;12.540;2024-01-10T09:21:09;13.83;;;11.03;;
40931;SDS011;36257;46.052;12.540;2024-01-10T09:23:35;11.20;;;9.53;;
40931;SDS011;36257;46.052;12.540;2024-01-10T09:26:01;11.20;;;9.77;;
40931;SDS011;36257;46.052;12.540;2024-01-10T09:28:27;11.57;;;9.83;;
40931;SDS011;36257;46.052;12.540;2024-01-10T09:30:53;11.53;;;10.23;;
40931;SDS011;36257;46.052;12.540;2024-01-10T09:33:19;11.37;;;9.57;;
40931;SDS011;36257;46.052;12.540;2024-01-10T09:35:45;11.00;;;9.07;;
40931;SDS011;36257;46.052;12.540;2024-01-10T09:38:10;15.73;;;10.90;;
40931;SDS011;36257;46.052;12.540;2024-01-10T09:40:36;11.43;;;10.23;;
40931;SDS011;36257;46.052;12.540;2024-01-10T09:43:03;11.93;;;9.77;;
40931;SDS011;36257;46.052;12.540;2024-01-10T09:45:30;10.73;;;9.57;;
40931;SDS011;36257;46.052;12.540;2024-01-10T09:47:59;13.23;;;10.30;;
40931;SDS011;36257;46.052;12.540;2024-01-10T09:50:26;11.10;;;9.37;;
40931;SDS011;36257;46.052;12.540;2024-01-10T09:52:53;12.03;;;9.67;;
40931;SDS011;36257;46.052;12.540;2024-01-10T09:55:23;10.63;;;9.47;;
40931;SDS011;36257;46.052;12.540;2024-01-10T09:57:52;10.20;;;9.13;;
40931;SDS011;36257;46.052;12.540;2024-01-10T10:00:18;11.35;;;9.25;;
40931;SDS011;36257;46.052;12.540;2024-01-10T10:02:45;12.23;;;10.10;;
40931;SDS011;36257;46.052;12.540;2024-01-10T10:05:17;10.88;;;9.38;;
40931;SDS011;36257;46.052;12.540;2024-01-10T10:07:50;10.02;;;8.93;;
40931;SDS011;36257;46.052;12.540;2024-01-10T10:10:18;11.48;;;9.35;;
40931;SDS011;36257;46.052;12.540;2024-01-10T10:12:48;9.63;;;8.55;;
40931;SDS011;36257;46.052;12.540;2024-01-10T10:15:16;10.90;;;8.48;;
40931;SDS011;36257;46.052;12.540;2024-01-10T10:20:14;9.98;;;8.10;;
40931;SDS011;36257;46.052;12.540;2024-01-10T10:22:40;10.38;;;8.73;;
40931;SDS011;36257;46.052;12.540;2024-01-10T10:25:16;11.00;;;8.80;;
40931;SDS011;36257;46.052;12.540;2024-01-10T10:27:42;10.93;;;9.00;;
40931;SDS011;36257;46.052;12.540;2024-01-10T10:30:08;13.35;;;9.32;;
40931;SDS011;36257;46.052;12.540;2024-01-10T10:32:34;10.48;;;8.48;;
40931;SDS011;36257;46.052;12.540;2024-01-10T10:35:00;10.88;;;9.60;;
40931;SDS011;36257;46.052;12.540;2024-01-10T10:37:25;12.77;;;8.18;;
40931;SDS011;36257;46.052;12.540;2024-01-10T10:39:51;11.93;;;7.68;;
40931;SDS011;36257;46.052;12.540;2024-01-10T10:42:17;9.57;;;8.05;;
40931;SDS011;36257;46.052;12.540;2024-01-10T10:44:44;9.07;;;8.02;;
40931;SDS011;36257;46.052;12.540;2024-01-10T10:47:11;13.23;;;10.52;;
40931;SDS011;36257;46.052;12.540;2024-01-10T10:49:42;11.73;;;8.43;;
40931;SDS011;36257;46.052;12.540;2024-01-10T10:52:14;9.95;;;8.45;;
40931;SDS011;36257;46.052;12.540;2024-01-10T10:54:41;12.23;;;7.90;;
40931;SDS011;36257;46.052;12.540;2024-01-10T10:57:08;9.80;;;8.73;;
40931;SDS011;36257;46.052;12.540;2024-01-10T10:59:34;13.67;;;8.73;;
40931;SDS011;36257;46.052;12.540;2024-01-10T11:02:01;10.88;;;8.63;;
40931;SDS011;36257;46.052;12.540;2024-01-10T11:04:26;10.75;;;8.05;;
40931;SDS011;36257;46.052;12.540;2024-01-10T11:06:54;9.45;;;7.88;;
40931;SDS011;36257;46.052;12.540;2024-01-10T11:09:19;12.82;;;8.85;;
40931;SDS011;36257;46.052;12.540;2024-01-10T11:20:11;8.82;;;6.97;;
40931;SDS011;36257;46.052;12.540;2024-01-10T11:25:12;8.98;;;7.50;;
40931;SDS011;36257;46.052;12.540;2024-01-10T11:27:39;7.18;;;6.47;;
40931;SDS011;36257;46.052;12.540;2024-01-10T11:30:05;10.90;;;7.50;;
40931;SDS011;36257;46.052;12.540;2024-01-10T11:32:31;8.23;;;7.30;;
40931;SDS011;36257;46.052;12.540;2024-01-10T11:37:28;8.45;;;6.88;;
40931;SDS011;36257;46.052;12.540;2024-01-10T11:40:14;9.30;;;7.70;;
40931;SDS011;36257;46.052;12.540;2024-01-10T11:42:47;7.70;;;6.65;;
40931;SDS011;36257;46.052;12.540;2024-01-10T11:47:59;9.05;;;6.97;;
40931;SDS011;36257;46.052;12.540;2024-01-10T11:50:25;9.70;;;7.38;;
40931;SDS011;36257;46.052;12.540;2024-01-10T11:52:54;10.23;;;7.50;;
40931;SDS011;36257;46.052;12.540;2024-01-10T11:58:23;9.00;;;7.50;;
40931;SDS011;36257;46.052;12.540;2024-01-10T12:00:48;9.93;;;8.75;;
40931;SDS011;36257;46.052;12.540;2024-01-10T12:03:14;7.95;;;7.15;;
40931;SDS011;36257;46.052;12.540;2024-01-10T12:05:41;8.60;;;7.68;;
40931;SDS011;36257;46.052;12.540;2024-01-10T12:08:08;8.93;;;7.95;;
40931;SDS011;36257;46.052;12.540;2024-01-10T12:10:34;8.70;;;7.45;;
40931;SDS011;36257;46.052;12.540;2024-01-10T12:13:04;9.57;;;8.57;;
40931;SDS011;36257;46.052;12.540;2024-01-10T12:15:30;9.13;;;7.53;;
40931;SDS011;36257;46.052;12.540;2024-01-10T12:17:55;9.52;;;7.50;;
40931;SDS011;36257;46.052;12.540;2024-01-10T12:20:21;10.48;;;7.22;;
40931;SDS011;36257;46.052;12.540;2024-01-10T12:22:47;9.13;;;7.53;;
40931;SDS011;36257;46.052;12.540;2024-01-10T12:25:12;8.45;;;7.30;;
40931;SDS011;36257;46.052;12.540;2024-01-10T12:27:39;7.95;;;7.13;;
40931;SDS011;36257;46.052;12.540;2024-01-10T12:30:05;10.13;;;8.00;;
40931;SDS011;36257;46.052;12.540;2024-01-10T12:32:32;11.60;;;8.25;;
40931;SDS011;36257;46.052;12.540;2024-01-10T12:34:59;7.90;;;6.80;;
40931;SDS011;36257;46.052;12.540;2024-01-10T12:37:29;7.80;;;7.00;;
40931;SDS011;36257;46.052;12.540;2024-01-10T12:39:55;8.10;;;7.10;;
40931;SDS011;36257;46.052;12.540;2024-01-10T12:42:21;9.25;;;7.60;;
40931;SDS011;36257;46.052;12.540;2024-01-10T12:44:47;8.95;;;6.63;;
40931;SDS011;36257;46.052;12.540;2024-01-10T12:47:22;7.72;;;6.93;;
40931;SDS011;36257;46.052;12.540;2024-01-10T12:49:49;8.33;;;7.50;;
40931;SDS011;36257;46.052;12.540;2024-01-10T12:52:15;8.20;;;7.18;;
40931;SDS011;36257;46.052;12.540;2024-01-10T12:54:41;7.43;;;6.45;;
40931;SDS011;36257;46.052;12.540;2024-01-10T12:57:07;7.40;;;6.60;;
40931;SDS011;36257;46.052;12.540;2024-01-10T12:59:33;9.50;;;7.32;;
40931;SDS011;36257;46.052;12.540;2024-01-10T13:01:59;10.15;;;7.38;;
40931;SDS011;36257;46.052;12.540;2024-01-10T13:04:25;8.43;;;7.15;;
40931;SDS011;36257;46.052;12.540;2024-01-10T13:06:50;9.15;;;7.78;;
40931;SDS011;36257;46.052;12.540;2024-01-10T13:09:17;9.55;;;8.38;;
40931;SDS011;36257;46.052;12.540;2024-01-10T13:11:42;8.57;;;7.13;;
40931;SDS011;36257;46.052;12.540;2024-01-10T13:14:10;8.20;;;7.32;;
40931;SDS011;36257;46.052;12.540;2024-01-10T13:16:37;8.55;;;7.13;;
40931;SDS011;36257;46.052;12.540;2024-01-10T13:19:02;8.77;;;6.50;;
40931;SDS011;36257;46.052;12.540;2024-01-10T13:21:28;9.52;;;8.10;;
40931;SDS011;36257;46.052;12.540;2024-01-10T13:23:54;8.65;;;7.35;;
40931;SDS011;36257;46.052;12.540;2024-01-10T13:26:20;9.07;;;8.15;;
40931;SDS011;36257;46.052;12.540;2024-01-10T13:28:45;8.68;;;7.40;;
40931;SDS011;36257;46.052;12.540;2024-01-10T13:31:11;8.27;;;7.40;;
40931;SDS011;36257;46.052;12.540;2024-01-10T13:33:37;7.82;;;7.03;;
40931;SDS011;36257;46.052;12.540;2024-01-10T13:36:04;10.65;;;6.75;;
40931;SDS011;36257;46.052;12.540;2024-01-10T13:38:30;7.53;;;6.82;;
40931;SDS011;36257;46.052;12.540;2024-01-10T13:40:55;10.02;;;7.55;;
40931;SDS011;36257;46.052;12.540;2024-01-10T13:43:21;7.35;;;6.60;;
40931;SDS011;36257;46.052;12.540;2024-01-10T13:45:47;8.27;;;6.82;;
40931;SDS011;36257;46.052;12.540;2024-01-10T13:48:13;8.60;;;6.68;;
40931;SDS011;36257;46.052;12.540;2024-01-10T13:50:38;9.10;;;7.45;;
40931;SDS011;36257;46.052;12.540;2024-01-10T13:53:04;6.90;;;6.25;;
40931;SDS011;36257;46.052;12.540;2024-01-10T13:55:30;8.70;;;7.60;;
40931;SDS011;36257;46.052;12.540;2024-01-10T13:57:56;8.20;;;7.28;;
40931;SDS011;36257;46.052;12.540;2024-01-10T14:00:22;8.70;;;6.45;;
40931;SDS011;36257;46.052;12.540;2024-01-10T14:02:48;6.93;;;6.22;;
40931;SDS011;36257;46.052;12.540;2024-01-10T14:05:15;7.30;;;5.78;;
40931;SDS011;36257;46.052;12.540;2024-01-10T14:07:41;7.35;;;6.55;;
40931;SDS011;36257;46.052;12.540;2024-01-10T14:10:09;8.93;;;7.35;;
40931;SDS011;36257;46.052;12.540;2024-01-10T14:12:36;9.05;;;6.65;;
40931;SDS011;36257;46.052;12.540;2024-01-10T14:15:02;8.43;;;7.28;;
40931;SDS011;36257;46.052;12.540;2024-01-10T14:17:29;11.65;;;7.40;;
40931;SDS011;36257;46.052;12.540;2024-01-10T14:19:55;8.50;;;7.70;;
40931;SDS011;36257;46.052;12.540;2024-01-10T14:22:20;8.43;;;7.25;;
40931;SDS011;36257;46.052;12.540;2024-01-10T14:24:48;7.80;;;6.88;;
40931;SDS011;36257;46.052;12.540;2024-01-10T14:27:15;9.57;;;7.65;;
40931;SDS011;36257;46.052;12.540;2024-01-10T14:29:41;10.65;;;8.65;;
40931;SDS011;36257;46.052;12.540;2024-01-10T14:32:07;8.73;;;7.47;;
40931;SDS011;36257;46.052;12.540;2024-01-10T14:34:33;10.52;;;8.18;;
40931;SDS011;36257;46.052;12.540;2024-01-10T14:36:58;8.10;;;6.93;;
40931;SDS011;36257;46.052;12.540;2024-01-10T14:39:24;7.97;;;7.05;;
40931;SDS011;36257;46.052;12.540;2024-01-10T14:41:49;8.57;;;7.65;;
40931;SDS011;36257;46.052;12.540;2024-01-10T14:44:15;8.80;;;7.07;;
40931;SDS011;36257;46.052;12.540;2024-01-10T14:46:41;13.52;;;8.77;;
40931;SDS011;36257;46.052;12.540;2024-01-10T14:49:06;8.65;;;6.60;;
40931;SDS011;36257;46.052;12.540;2024-01-10T14:51:32;9.35;;;7.35;;
40931;SDS011;36257;46.052;12.540;2024-01-10T14:53:58;8.35;;;7.20;;
40931;SDS011;36257;46.052;12.540;2024-01-10T14:56:24;8.73;;;7.75;;
40931;SDS011;36257;46.052;12.540;2024-01-10T14:58:50;9.60;;;7.20;;
40931;SDS011;36257;46.052;12.540;2024-01-10T15:01:16;9.25;;;7.78;;
40931;SDS011;36257;46.052;12.540;2024-01-10T15:03:42;12.05;;;8.27;;
40931;SDS011;36257;46.052;12.540;2024-01-10T15:06:07;11.02;;;8.85;;
40931;SDS011;36257;46.052;12.540;2024-01-10T15:08:33;10.80;;;8.77;;
40931;SDS011;36257;46.052;12.540;2024-01-10T15:10:59;11.73;;;9.90;;
40931;SDS011;36257;46.052;12.540;2024-01-10T15:13:25;11.93;;;10.10;;
40931;SDS011;36257;46.052;12.540;2024-01-10T15:15:51;12.38;;;10.13;;
40931;SDS011;36257;46.052;12.540;2024-01-10T15:18:16;13.75;;;11.48;;
40931;SDS011;36257;46.052;12.540;2024-01-10T15:20:44;16.90;;;13.00;;
40931;SDS011;36257;46.052;12.540;2024-01-10T15:23:11;45.10;;;24.17;;
40931;SDS011;36257;46.052;12.540;2024-01-10T15:25:36;54.77;;;27.77;;
40931;SDS011;36257;46.052;12.540;2024-01-10T15:28:02;50.43;;;28.00;;
40931;SDS011;36257;46.052;12.540;2024-01-10T15:30:28;31.23;;;18.43;;
40931;SDS011;36257;46.052;12.540;2024-01-10T15:32:54;21.63;;;14.33;;
40931;SDS011;36257;46.052;12.540;2024-01-10T15:35:20;11.17;;;9.97;;
40931;SDS011;36257;46.052;12.540;2024-01-10T15:37:46;11.37;;;10.17;;
40931;SDS011;36257;46.052;12.540;2024-01-10T15:40:11;9.77;;;8.73;;
40931;SDS011;36257;46.052;12.540;2024-01-10T15:42:38;10.20;;;9.20;;
40931;SDS011;36257;46.052;12.540;2024-01-10T15:45:08;12.67;;;10.50;;
40931;SDS011;36257;46.052;12.540;2024-01-10T15:47:36;11.83;;;10.63;;
40931;SDS011;36257;46.052;12.540;2024-01-10T15:50:02;10.97;;;9.87;;
40931;SDS011;36257;46.052;12.540;2024-01-10T15:52:28;12.80;;;11.53;;
40931;SDS011;36257;46.052;12.540;2024-01-10T15:54:54;15.47;;;12.67;;
40931;SDS011;36257;46.052;12.540;2024-01-10T15:57:21;18.03;;;14.53;;
40931;SDS011;36257;46.052;12.540;2024-01-10T15:59:47;14.98;;;12.07;;
40931;SDS011;36257;46.052;12.540;2024-01-10T16:02:13;11.80;;;10.63;;
40931;SDS011;36257;46.052;12.540;2024-01-10T16:04:39;13.77;;;10.90;;
40931;SDS011;36257;46.052;12.540;2024-01-10T16:07:05;13.27;;;11.50;;